x

Venice, Fl (venf1) Weather Station

9:00pm - Sun 29th May 2016 All times are EDT. -4 hours from GMT.

  • Wind
    8mph, 11mph gusts
  • Sea Temp 82°f
  • Air Temp 79°f
  • Sea Pressure 1017.1mb
  • Venice, Fl
  • Venice, Fl

More Historic Weather Station data

Upgrade to MSW Pro to gain access to the past 30 days of data for over 8000 Wavebouys and Weather Stations around the globe.

Join Pro

Comparision Forecast

View Surf forecast
   
Sun 05/29 9:00pm 8 11 mph 1017.1mb 82f 79f
8:00pm 7 8 mph 1016.5mb 83f 81f
7:00pm 10 13 mph 1016.2mb 83f 81f
6:00pm 13 14 mph 1016.2mb 83f 81f
5:00pm 11 13 mph 1016.3mb 83f 81f
4:00pm 13 14 mph 1016.6mb 83f 81f
3:00pm 11 13 mph 1017.1mb 82f 82f
2:00pm 8 10 mph 1017.7mb 81f 82f
1:00pm 7
mph
1018.1mb 81f 82f
12:00pm 7
mph
1018.2mb 81f 82f
11:00am 6 7 mph 1018.3mb 81f 81f
10:00am 5
mph
1018.1mb 80f 80f
9:00am 3 5 mph 1017.9mb 80f 77f
8:00am 5 7 mph 1017.7mb 80f 75f
7:00am 2
mph
1017.2mb 80f 75f
6:00am 3 5 mph 1016.7mb 80f 75f
5:00am 2 3 mph 1016.2mb 81f 76f
4:00am 3
mph
1016mb 81f 77f
3:00am 5 6 mph 1016.6mb 81f 77f
2:00am 8 10 mph 1017.1mb 81f 80f
1:00am 8 9 mph 1017.3mb 81f 80f
12:00am 7
mph
1017.4mb 81f 80f
Sat 05/28 11:00pm 9 10 mph 1017.3mb 81f 80f
10:00pm 3 5 mph 1016.7mb 81f 80f
9:00pm 7 8 mph 1016.6mb 81f 80f
8:00pm 5 6 mph 1015.8mb 82f 80f
7:00pm 7 8 mph 1015mb 81f 81f
6:00pm 3 5 mph 1015mb 82f 82f
5:00pm 2 3 mph 1015.9mb 82f 80f
4:00pm 7 8 mph 1015.9mb 82f 81f
3:00pm 8
mph
1015.7mb 81f 82f
2:00pm 6 7 mph 1016.4mb 81f 81f
1:00pm 7 8 mph 1016.7mb 81f 79f
12:00pm 13 14 mph 1016.9mb 80f 80f
11:00am 7 10 mph 1016.9mb 80f 82f
10:00am 8 10 mph 1016.6mb 80f 81f
9:00am 7 9 mph 1016.6mb 80f 78f
8:00am 7 9 mph 1016.1mb 80f 74f
7:00am 6 7 mph 1015.6mb 80f 72f
6:00am 6 7 mph 1015.1mb 80f 72f
5:00am 6 8 mph 1014.6mb 80f 73f
4:00am 8 9 mph 1014.5mb 80f 73f
3:00am 3 5 mph 1014.8mb 80f 74f
2:00am 6 9 mph 1014.9mb 80f 75f
1:00am 6 7 mph 1015.1mb 80f 76f
12:00am 7 8 mph 1015.4mb 81f 77f
Fri 05/27 11:00pm 13 16 mph 1015.2mb 81f 78f
10:00pm 13 16 mph 1014.2mb 81f 80f
9:00pm 7 8 mph 1013.7mb 81f 81f
8:00pm 17 18 mph 1013.2mb 81f 80f
7:00pm 13 14 mph 1012.7mb 81f 81f
6:00pm 15 16 mph 1012.9mb 82f 81f
5:00pm 15
mph
1013.3mb 82f 82f
4:00pm 13 14 mph 1013.9mb 81f 82f
3:00pm 9 11 mph 1014.1mb 81f 83f
2:00pm 8 9 mph 1015mb 81f 84f
1:00pm 3 5 mph 1016.1mb 81f 83f
12:00pm 6 9 mph 1016.7mb 81f 82f
11:00am 10 14 mph 1016.6mb 80f 80f
10:00am 8 11 mph 1016.5mb 80f 78f
9:00am 8 10 mph 1016.5mb 80f 75f
8:00am 9 11 mph 1015.9mb 80f 71f
7:00am 3 5 mph 1016mb 80f 68f
6:00am 3 6 mph 1015.6mb 80f 68f
5:00am 2 5 mph 1015.5mb 80f 69f
4:00am 6 8 mph 1015.6mb 80f 69f
3:00am 8 11 mph 1015.7mb 80f 71f
2:00am 7 11 mph 1016.5mb 80f 73f
1:00am 8 13 mph 1017.1mb 80f 73f
12:00am 9 11 mph 1017.6mb 80f 75f
Thu 05/26 11:00pm 9 13 mph 1017.6mb 80f 77f
10:00pm 9 14 mph 1017mb 80f 78f
9:00pm 10 14 mph 1016.4mb 80f 80f
8:00pm 13 16 mph 1015.9mb 81f 82f
7:00pm 10 13 mph 1015.9mb 81f 86f
6:00pm 9 14 mph 1016mb 80f 86f
5:00pm 10 18 mph 1016.5mb 81f 86f
4:00pm 9 14 mph 1017.1mb 81f 86f
3:00pm 8 14 mph 1017.6mb 81f 84f
2:00pm 13 16 mph 1018.5mb 81f 84f
1:00pm 8 14 mph 1019.2mb 81f 82f
12:00pm 9 11 mph 1019.6mb 81f 80f
11:00am 8 10 mph 1020mb 81f 80f
10:00am 10 14 mph 1020.1mb 81f 77f
9:00am 7 9 mph 1020.2mb 81f 75f
8:00am 3 6 mph 1020.5mb 81f 71f
7:00am 5 7 mph 1019.9mb 81f 68f
6:00am 7 8 mph 1019.3mb 81f 68f
5:00am 6 8 mph 1020mb 81f 68f
4:00am 6 8 mph 1020.4mb 81f 69f
3:00am 7 9 mph 1020.3mb 82f 71f